sensor_id;sensor_type;location;lat;lon;timestamp;P1;durP1;ratioP1;P2;durP2;ratioP2
25549;SDS011;13444;50.562;7.262;2023-11-22T00:00:41;4.75;;;3.60;;
25549;SDS011;13444;50.562;7.262;2023-11-22T00:03:08;5.97;;;3.47;;
25549;SDS011;13444;50.562;7.262;2023-11-22T00:05:33;5.10;;;3.05;;
25549;SDS011;13444;50.562;7.262;2023-11-22T00:07:59;3.95;;;3.45;;
25549;SDS011;13444;50.562;7.262;2023-11-22T00:10:24;6.18;;;3.55;;
25549;SDS011;13444;50.562;7.262;2023-11-22T00:12:50;4.68;;;3.78;;
25549;SDS011;13444;50.562;7.262;2023-11-22T00:15:15;6.13;;;3.92;;
25549;SDS011;13444;50.562;7.262;2023-11-22T00:17:43;5.60;;;4.35;;
25549;SDS011;13444;50.562;7.262;2023-11-22T00:20:12;6.65;;;3.85;;
25549;SDS011;13444;50.562;7.262;2023-11-22T00:22:38;4.32;;;3.63;;
25549;SDS011;13444;50.562;7.262;2023-11-22T00:25:03;7.20;;;4.30;;
25549;SDS011;13444;50.562;7.262;2023-11-22T00:27:29;5.75;;;4.25;;
25549;SDS011;13444;50.562;7.262;2023-11-22T00:29:56;6.13;;;3.58;;
25549;SDS011;13444;50.562;7.262;2023-11-22T00:32:22;4.53;;;3.38;;
25549;SDS011;13444;50.562;7.262;2023-11-22T00:34:48;5.80;;;4.23;;
25549;SDS011;13444;50.562;7.262;2023-11-22T00:37:14;9.48;;;3.67;;
25549;SDS011;13444;50.562;7.262;2023-11-22T00:39:40;6.83;;;3.30;;
25549;SDS011;13444;50.562;7.262;2023-11-22T00:42:06;6.03;;;4.13;;
25549;SDS011;13444;50.562;7.262;2023-11-22T00:44:32;6.43;;;3.60;;
25549;SDS011;13444;50.562;7.262;2023-11-22T00:46:58;8.65;;;4.05;;
25549;SDS011;13444;50.562;7.262;2023-11-22T00:49:24;5.10;;;3.75;;
25549;SDS011;13444;50.562;7.262;2023-11-22T00:51:49;4.63;;;3.40;;
25549;SDS011;13444;50.562;7.262;2023-11-22T00:54:15;4.93;;;3.80;;
25549;SDS011;13444;50.562;7.262;2023-11-22T00:56:42;5.60;;;3.55;;
25549;SDS011;13444;50.562;7.262;2023-11-22T00:59:07;3.88;;;3.33;;
25549;SDS011;13444;50.562;7.262;2023-11-22T01:01:33;6.25;;;3.58;;
25549;SDS011;13444;50.562;7.262;2023-11-22T01:03:59;5.80;;;3.90;;
25549;SDS011;13444;50.562;7.262;2023-11-22T01:06:25;5.07;;;3.30;;
25549;SDS011;13444;50.562;7.262;2023-11-22T01:08:50;6.68;;;3.45;;
25549;SDS011;13444;50.562;7.262;2023-11-22T01:11:16;3.93;;;3.10;;
25549;SDS011;13444;50.562;7.262;2023-11-22T01:13:42;7.00;;;3.90;;
25549;SDS011;13444;50.562;7.262;2023-11-22T01:16:08;6.13;;;3.40;;
25549;SDS011;13444;50.562;7.262;2023-11-22T01:18:35;5.97;;;3.37;;
25549;SDS011;13444;50.562;7.262;2023-11-22T01:21:01;6.07;;;3.72;;
25549;SDS011;13444;50.562;7.262;2023-11-22T01:23:27;6.00;;;3.70;;
25549;SDS011;13444;50.562;7.262;2023-11-22T01:25:55;5.07;;;3.60;;
25549;SDS011;13444;50.562;7.262;2023-11-22T01:28:20;4.72;;;3.65;;
25549;SDS011;13444;50.562;7.262;2023-11-22T01:30:46;5.73;;;3.97;;
25549;SDS011;13444;50.562;7.262;2023-11-22T01:33:12;6.68;;;3.90;;
25549;SDS011;13444;50.562;7.262;2023-11-22T01:35:38;4.65;;;3.63;;
25549;SDS011;13444;50.562;7.262;2023-11-22T01:38:03;4.95;;;3.70;;
25549;SDS011;13444;50.562;7.262;2023-11-22T01:40:30;4.55;;;3.50;;
25549;SDS011;13444;50.562;7.262;2023-11-22T01:42:56;4.20;;;3.70;;
25549;SDS011;13444;50.562;7.262;2023-11-22T01:45:22;4.95;;;3.63;;
25549;SDS011;13444;50.562;7.262;2023-11-22T01:47:48;4.00;;;3.47;;
25549;SDS011;13444;50.562;7.262;2023-11-22T01:50:13;4.97;;;3.50;;
25549;SDS011;13444;50.562;7.262;2023-11-22T01:52:39;5.55;;;3.80;;
25549;SDS011;13444;50.562;7.262;2023-11-22T01:55:06;4.53;;;3.20;;
25549;SDS011;13444;50.562;7.262;2023-11-22T01:57:33;5.57;;;4.03;;
25549;SDS011;13444;50.562;7.262;2023-11-22T02:00:02;4.30;;;3.60;;
25549;SDS011;13444;50.562;7.262;2023-11-22T02:02:32;4.45;;;3.20;;
25549;SDS011;13444;50.562;7.262;2023-11-22T02:04:58;4.68;;;4.03;;
25549;SDS011;13444;50.562;7.262;2023-11-22T02:07:24;5.67;;;3.93;;
25549;SDS011;13444;50.562;7.262;2023-11-22T02:09:52;8.13;;;4.65;;
25549;SDS011;13444;50.562;7.262;2023-11-22T02:12:18;4.90;;;4.03;;
25549;SDS011;13444;50.562;7.262;2023-11-22T02:14:44;7.20;;;4.37;;
25549;SDS011;13444;50.562;7.262;2023-11-22T02:17:10;10.23;;;5.07;;
25549;SDS011;13444;50.562;7.262;2023-11-22T02:19:35;6.70;;;4.77;;
25549;SDS011;13444;50.562;7.262;2023-11-22T02:22:01;6.33;;;5.30;;
25549;SDS011;13444;50.562;7.262;2023-11-22T02:24:27;8.60;;;5.93;;
25549;SDS011;13444;50.562;7.262;2023-11-22T02:26:53;7.90;;;5.90;;
25549;SDS011;13444;50.562;7.262;2023-11-22T02:29:18;7.60;;;5.20;;
25549;SDS011;13444;50.562;7.262;2023-11-22T02:31:45;7.20;;;5.40;;
25549;SDS011;13444;50.562;7.262;2023-11-22T02:34:10;9.68;;;5.88;;
25549;SDS011;13444;50.562;7.262;2023-11-22T02:39:29;8.03;;;6.13;;
25549;SDS011;13444;50.562;7.262;2023-11-22T02:42:03;8.57;;;6.87;;
25549;SDS011;13444;50.562;7.262;2023-11-22T02:44:29;8.00;;;6.60;;
25549;SDS011;13444;50.562;7.262;2023-11-22T02:46:54;7.70;;;6.37;;
25549;SDS011;13444;50.562;7.262;2023-11-22T02:49:22;10.17;;;7.33;;
25549;SDS011;13444;50.562;7.262;2023-11-22T02:51:48;8.23;;;6.33;;
25549;SDS011;13444;50.562;7.262;2023-11-22T02:54:13;12.17;;;7.20;;
25549;SDS011;13444;50.562;7.262;2023-11-22T02:56:39;8.00;;;7.00;;
25549;SDS011;13444;50.562;7.262;2023-11-22T02:59:04;10.00;;;6.70;;
25549;SDS011;13444;50.562;7.262;2023-11-22T03:01:30;11.30;;;7.53;;
25549;SDS011;13444;50.562;7.262;2023-11-22T03:03:56;10.48;;;7.10;;
25549;SDS011;13444;50.562;7.262;2023-11-22T03:06:24;9.10;;;6.70;;
25549;SDS011;13444;50.562;7.262;2023-11-22T03:08:49;8.97;;;6.20;;
25549;SDS011;13444;50.562;7.262;2023-11-22T03:11:15;13.70;;;7.07;;
25549;SDS011;13444;50.562;7.262;2023-11-22T03:13:41;9.10;;;6.80;;
25549;SDS011;13444;50.562;7.262;2023-11-22T03:16:07;9.27;;;6.27;;
25549;SDS011;13444;50.562;7.262;2023-11-22T03:18:33;9.00;;;7.13;;
25549;SDS011;13444;50.562;7.262;2023-11-22T03:21:01;11.47;;;7.07;;
25549;SDS011;13444;50.562;7.262;2023-11-22T03:23:26;9.33;;;6.70;;
25549;SDS011;13444;50.562;7.262;2023-11-22T03:25:52;10.30;;;6.60;;
25549;SDS011;13444;50.562;7.262;2023-11-22T03:28:17;9.10;;;6.63;;
25549;SDS011;13444;50.562;7.262;2023-11-22T03:30:43;10.02;;;6.97;;
25549;SDS011;13444;50.562;7.262;2023-11-22T03:33:08;9.27;;;7.43;;
25549;SDS011;13444;50.562;7.262;2023-11-22T03:35:34;8.80;;;6.80;;
25549;SDS011;13444;50.562;7.262;2023-11-22T03:38:00;10.17;;;7.50;;
25549;SDS011;13444;50.562;7.262;2023-11-22T03:40:25;10.77;;;7.23;;
25549;SDS011;13444;50.562;7.262;2023-11-22T03:42:51;8.73;;;6.77;;
25549;SDS011;13444;50.562;7.262;2023-11-22T03:45:16;8.87;;;7.00;;
25549;SDS011;13444;50.562;7.262;2023-11-22T03:47:42;7.57;;;6.20;;
25549;SDS011;13444;50.562;7.262;2023-11-22T03:50:08;8.80;;;6.47;;
25549;SDS011;13444;50.562;7.262;2023-11-22T03:52:34;8.13;;;6.70;;
25549;SDS011;13444;50.562;7.262;2023-11-22T03:55:01;7.43;;;6.50;;
25549;SDS011;13444;50.562;7.262;2023-11-22T03:57:28;8.13;;;6.70;;
25549;SDS011;13444;50.562;7.262;2023-11-22T03:59:54;7.93;;;6.73;;
25549;SDS011;13444;50.562;7.262;2023-11-22T04:02:19;9.37;;;6.27;;
25549;SDS011;13444;50.562;7.262;2023-11-22T04:04:45;8.27;;;5.95;;
25549;SDS011;13444;50.562;7.262;2023-11-22T04:07:11;10.02;;;6.97;;
25549;SDS011;13444;50.562;7.262;2023-11-22T04:09:36;10.18;;;6.38;;
25549;SDS011;13444;50.562;7.262;2023-11-22T04:12:03;8.90;;;6.93;;
25549;SDS011;13444;50.562;7.262;2023-11-22T04:14:29;10.63;;;7.23;;
25549;SDS011;13444;50.562;7.262;2023-11-22T04:16:54;10.50;;;7.33;;
25549;SDS011;13444;50.562;7.262;2023-11-22T04:19:20;8.63;;;6.80;;
25549;SDS011;13444;50.562;7.262;2023-11-22T04:21:46;9.37;;;6.60;;
25549;SDS011;13444;50.562;7.262;2023-11-22T04:24:12;12.67;;;7.33;;
25549;SDS011;13444;50.562;7.262;2023-11-22T04:26:37;8.17;;;6.77;;
25549;SDS011;13444;50.562;7.262;2023-11-22T04:29:03;9.67;;;6.93;;
25549;SDS011;13444;50.562;7.262;2023-11-22T04:31:29;10.23;;;6.90;;
25549;SDS011;13444;50.562;7.262;2023-11-22T04:33:55;13.83;;;7.03;;
25549;SDS011;13444;50.562;7.262;2023-11-22T04:36:22;8.40;;;6.13;;
25549;SDS011;13444;50.562;7.262;2023-11-22T04:38:48;8.83;;;6.17;;
25549;SDS011;13444;50.562;7.262;2023-11-22T04:41:14;9.03;;;6.53;;
25549;SDS011;13444;50.562;7.262;2023-11-22T04:43:40;11.20;;;6.50;;
25549;SDS011;13444;50.562;7.262;2023-11-22T04:46:06;7.60;;;6.30;;
25549;SDS011;13444;50.562;7.262;2023-11-22T04:48:34;7.13;;;5.60;;
25549;SDS011;13444;50.562;7.262;2023-11-22T04:51:01;6.80;;;5.97;;
25549;SDS011;13444;50.562;7.262;2023-11-22T04:53:27;11.20;;;6.80;;
25549;SDS011;13444;50.562;7.262;2023-11-22T04:55:52;7.83;;;6.13;;
25549;SDS011;13444;50.562;7.262;2023-11-22T04:58:18;6.97;;;5.47;;
25549;SDS011;13444;50.562;7.262;2023-11-22T05:00:44;8.80;;;6.73;;
25549;SDS011;13444;50.562;7.262;2023-11-22T05:03:10;7.50;;;5.90;;
25549;SDS011;13444;50.562;7.262;2023-11-22T05:05:36;11.17;;;6.07;;
25549;SDS011;13444;50.562;7.262;2023-11-22T05:08:01;9.87;;;6.03;;
25549;SDS011;13444;50.562;7.262;2023-11-22T05:10:27;11.60;;;5.83;;
25549;SDS011;13444;50.562;7.262;2023-11-22T05:12:53;11.10;;;5.80;;
25549;SDS011;13444;50.562;7.262;2023-11-22T05:15:20;7.90;;;5.57;;
25549;SDS011;13444;50.562;7.262;2023-11-22T05:17:46;8.07;;;6.13;;
25549;SDS011;13444;50.562;7.262;2023-11-22T05:20:11;7.33;;;5.80;;
25549;SDS011;13444;50.562;7.262;2023-11-22T05:22:37;8.77;;;5.43;;
25549;SDS011;13444;50.562;7.262;2023-11-22T05:25:02;7.87;;;5.67;;
25549;SDS011;13444;50.562;7.262;2023-11-22T05:27:28;6.57;;;5.40;;
25549;SDS011;13444;50.562;7.262;2023-11-22T05:29:54;8.70;;;5.70;;
25549;SDS011;13444;50.562;7.262;2023-11-22T05:32:19;7.80;;;5.00;;
25549;SDS011;13444;50.562;7.262;2023-11-22T05:34:45;6.60;;;5.33;;
25549;SDS011;13444;50.562;7.262;2023-11-22T05:37:10;6.83;;;5.77;;
25549;SDS011;13444;50.562;7.262;2023-11-22T05:39:37;9.23;;;5.40;;
25549;SDS011;13444;50.562;7.262;2023-11-22T05:42:02;8.10;;;5.47;;
25549;SDS011;13444;50.562;7.262;2023-11-22T05:44:28;5.23;;;4.70;;
25549;SDS011;13444;50.562;7.262;2023-11-22T05:46:54;6.90;;;4.93;;
25549;SDS011;13444;50.562;7.262;2023-11-22T05:49:19;6.03;;;4.80;;
25549;SDS011;13444;50.562;7.262;2023-11-22T05:51:45;6.73;;;4.70;;
25549;SDS011;13444;50.562;7.262;2023-11-22T05:54:10;6.93;;;4.37;;
25549;SDS011;13444;50.562;7.262;2023-11-22T05:56:37;5.43;;;3.93;;
25549;SDS011;13444;50.562;7.262;2023-11-22T05:59:03;7.20;;;4.70;;
25549;SDS011;13444;50.562;7.262;2023-11-22T06:01:29;7.00;;;4.60;;
25549;SDS011;13444;50.562;7.262;2023-11-22T06:03:55;6.33;;;4.40;;
25549;SDS011;13444;50.562;7.262;2023-11-22T06:06:21;5.70;;;4.30;;
25549;SDS011;13444;50.562;7.262;2023-11-22T06:08:47;5.37;;;3.80;;
25549;SDS011;13444;50.562;7.262;2023-11-22T06:11:13;6.93;;;4.07;;
25549;SDS011;13444;50.562;7.262;2023-11-22T06:13:40;4.63;;;4.03;;
25549;SDS011;13444;50.562;7.262;2023-11-22T06:16:08;6.73;;;4.33;;
25549;SDS011;13444;50.562;7.262;2023-11-22T06:18:34;4.97;;;4.00;;
25549;SDS011;13444;50.562;7.262;2023-11-22T06:21:05;5.33;;;4.47;;
25549;SDS011;13444;50.562;7.262;2023-11-22T06:23:31;6.30;;;4.53;;
25549;SDS011;13444;50.562;7.262;2023-11-22T06:25:56;5.17;;;4.20;;
25549;SDS011;13444;50.562;7.262;2023-11-22T06:28:22;6.93;;;5.20;;
25549;SDS011;13444;50.562;7.262;2023-11-22T06:30:47;5.60;;;4.70;;
25549;SDS011;13444;50.562;7.262;2023-11-22T06:33:13;6.43;;;4.70;;
25549;SDS011;13444;50.562;7.262;2023-11-22T06:35:38;5.63;;;4.43;;
25549;SDS011;13444;50.562;7.262;2023-11-22T06:38:04;5.77;;;4.27;;
25549;SDS011;13444;50.562;7.262;2023-11-22T06:40:29;8.47;;;4.70;;
25549;SDS011;13444;50.562;7.262;2023-11-22T06:42:55;4.90;;;3.87;;
25549;SDS011;13444;50.562;7.262;2023-11-22T06:45:21;4.83;;;3.97;;
25549;SDS011;13444;50.562;7.262;2023-11-22T06:47:47;4.60;;;3.57;;
25549;SDS011;13444;50.562;7.262;2023-11-22T06:50:12;6.93;;;4.00;;
25549;SDS011;13444;50.562;7.262;2023-11-22T06:52:39;4.40;;;3.57;;
25549;SDS011;13444;50.562;7.262;2023-11-22T06:55:05;4.73;;;3.63;;
25549;SDS011;13444;50.562;7.262;2023-11-22T06:57:37;6.00;;;4.20;;
25549;SDS011;13444;50.562;7.262;2023-11-22T07:00:03;5.70;;;4.10;;
25549;SDS011;13444;50.562;7.262;2023-11-22T07:02:33;4.67;;;3.83;;
25549;SDS011;13444;50.562;7.262;2023-11-22T07:05:00;6.73;;;3.60;;
25549;SDS011;13444;50.562;7.262;2023-11-22T07:07:32;6.53;;;4.43;;
25549;SDS011;13444;50.562;7.262;2023-11-22T07:09:58;7.23;;;4.33;;
25549;SDS011;13444;50.562;7.262;2023-11-22T07:12:23;4.77;;;3.67;;
25549;SDS011;13444;50.562;7.262;2023-11-22T07:14:49;4.87;;;3.83;;
25549;SDS011;13444;50.562;7.262;2023-11-22T07:17:15;5.13;;;3.77;;
25549;SDS011;13444;50.562;7.262;2023-11-22T07:19:42;7.57;;;4.30;;
25549;SDS011;13444;50.562;7.262;2023-11-22T07:22:12;6.27;;;4.10;;
25549;SDS011;13444;50.562;7.262;2023-11-22T07:24:44;4.87;;;4.03;;
25549;SDS011;13444;50.562;7.262;2023-11-22T07:27:14;5.27;;;3.93;;
25549;SDS011;13444;50.562;7.262;2023-11-22T07:29:40;6.30;;;4.30;;
25549;SDS011;13444;50.562;7.262;2023-11-22T07:32:06;5.33;;;3.77;;
25549;SDS011;13444;50.562;7.262;2023-11-22T07:34:33;4.33;;;3.43;;
25549;SDS011;13444;50.562;7.262;2023-11-22T07:37:00;4.57;;;3.13;;
25549;SDS011;13444;50.562;7.262;2023-11-22T07:39:25;4.97;;;3.50;;
25549;SDS011;13444;50.562;7.262;2023-11-22T07:41:52;5.30;;;4.07;;
25549;SDS011;13444;50.562;7.262;2023-11-22T07:44:19;5.73;;;4.10;;
25549;SDS011;13444;50.562;7.262;2023-11-22T07:46:51;6.37;;;3.90;;
25549;SDS011;13444;50.562;7.262;2023-11-22T07:49:18;5.97;;;4.40;;
25549;SDS011;13444;50.562;7.262;2023-11-22T07:51:44;5.03;;;3.70;;
25549;SDS011;13444;50.562;7.262;2023-11-22T07:54:10;5.47;;;3.80;;
25549;SDS011;13444;50.562;7.262;2023-11-22T07:56:40;6.00;;;3.80;;
25549;SDS011;13444;50.562;7.262;2023-11-22T07:59:08;7.27;;;3.90;;
25549;SDS011;13444;50.562;7.262;2023-11-22T08:01:35;9.40;;;3.57;;
25549;SDS011;13444;50.562;7.262;2023-11-22T08:04:01;5.03;;;3.27;;
25549;SDS011;13444;50.562;7.262;2023-11-22T08:06:27;5.63;;;3.63;;
25549;SDS011;13444;50.562;7.262;2023-11-22T08:08:53;4.57;;;3.63;;
25549;SDS011;13444;50.562;7.262;2023-11-22T08:11:18;4.23;;;3.13;;
25549;SDS011;13444;50.562;7.262;2023-11-22T08:13:44;4.63;;;3.07;;
25549;SDS011;13444;50.562;7.262;2023-11-22T08:16:10;4.97;;;3.30;;
25549;SDS011;13444;50.562;7.262;2023-11-22T08:18:38;3.23;;;2.70;;
25549;SDS011;13444;50.562;7.262;2023-11-22T08:21:05;3.50;;;3.00;;
25549;SDS011;13444;50.562;7.262;2023-11-22T08:23:31;4.53;;;2.93;;
25549;SDS011;13444;50.562;7.262;2023-11-22T08:26:00;5.87;;;3.43;;
25549;SDS011;13444;50.562;7.262;2023-11-22T08:28:26;4.33;;;3.23;;
25549;SDS011;13444;50.562;7.262;2023-11-22T08:30:52;5.23;;;3.30;;
25549;SDS011;13444;50.562;7.262;2023-11-22T08:33:18;5.53;;;3.23;;
25549;SDS011;13444;50.562;7.262;2023-11-22T08:35:43;7.43;;;3.23;;
25549;SDS011;13444;50.562;7.262;2023-11-22T08:38:09;3.97;;;2.87;;
25549;SDS011;13444;50.562;7.262;2023-11-22T08:40:35;3.93;;;2.80;;
25549;SDS011;13444;50.562;7.262;2023-11-22T08:43:02;4.57;;;2.93;;
25549;SDS011;13444;50.562;7.262;2023-11-22T08:45:29;5.87;;;3.00;;
25549;SDS011;13444;50.562;7.262;2023-11-22T08:47:56;3.90;;;2.67;;
25549;SDS011;13444;50.562;7.262;2023-11-22T08:50:22;3.40;;;2.80;;
25549;SDS011;13444;50.562;7.262;2023-11-22T08:52:48;4.13;;;2.63;;
25549;SDS011;13444;50.562;7.262;2023-11-22T08:55:17;4.57;;;2.40;;
25549;SDS011;13444;50.562;7.262;2023-11-22T08:57:50;4.35;;;2.72;;
25549;SDS011;13444;50.562;7.262;2023-11-22T09:00:18;3.10;;;2.13;;
25549;SDS011;13444;50.562;7.262;2023-11-22T09:02:50;4.65;;;2.58;;
25549;SDS011;13444;50.562;7.262;2023-11-22T09:05:16;6.55;;;2.53;;
25549;SDS011;13444;50.562;7.262;2023-11-22T09:07:44;3.78;;;2.15;;
25549;SDS011;13444;50.562;7.262;2023-11-22T09:10:10;3.83;;;2.38;;
25549;SDS011;13444;50.562;7.262;2023-11-22T09:12:39;3.85;;;1.90;;
25549;SDS011;13444;50.562;7.262;2023-11-22T09:15:12;2.53;;;1.88;;
25549;SDS011;13444;50.562;7.262;2023-11-22T09:17:41;4.07;;;2.03;;
25549;SDS011;13444;50.562;7.262;2023-11-22T09:20:17;4.30;;;1.90;;
25549;SDS011;13444;50.562;7.262;2023-11-22T09:22:47;1.80;;;1.33;;
25549;SDS011;13444;50.562;7.262;2023-11-22T09:25:21;3.03;;;1.30;;
25549;SDS011;13444;50.562;7.262;2023-11-22T09:27:49;2.53;;;1.02;;
25549;SDS011;13444;50.562;7.262;2023-11-22T09:30:18;2.05;;;1.40;;
25549;SDS011;13444;50.562;7.262;2023-11-22T09:33:07;1.92;;;1.10;;
25549;SDS011;13444;50.562;7.262;2023-11-22T09:35:39;1.95;;;1.27;;
25549;SDS011;13444;50.562;7.262;2023-11-22T09:38:05;2.72;;;1.40;;
25549;SDS011;13444;50.562;7.262;2023-11-22T09:40:38;2.38;;;1.40;;
25549;SDS011;13444;50.562;7.262;2023-11-22T09:43:06;1.20;;;0.90;;
25549;SDS011;13444;50.562;7.262;2023-11-22T09:45:32;1.13;;;0.82;;
25549;SDS011;13444;50.562;7.262;2023-11-22T09:47:58;2.17;;;1.30;;
25549;SDS011;13444;50.562;7.262;2023-11-22T09:53:07;1.90;;;1.00;;
25549;SDS011;13444;50.562;7.262;2023-11-22T09:55:37;3.40;;;1.25;;
25549;SDS011;13444;50.562;7.262;2023-11-22T09:58:07;1.92;;;1.13;;
25549;SDS011;13444;50.562;7.262;2023-11-22T10:00:35;1.30;;;1.10;;
25549;SDS011;13444;50.562;7.262;2023-11-22T10:03:01;2.58;;;1.20;;
25549;SDS011;13444;50.562;7.262;2023-11-22T10:05:27;1.35;;;1.00;;
25549;SDS011;13444;50.562;7.262;2023-11-22T10:07:53;3.20;;;1.20;;
25549;SDS011;13444;50.562;7.262;2023-11-22T10:10:21;1.80;;;1.20;;
25549;SDS011;13444;50.562;7.262;2023-11-22T10:12:52;2.53;;;1.08;;
25549;SDS011;13444;50.562;7.262;2023-11-22T10:15:21;1.00;;;0.90;;
25549;SDS011;13444;50.562;7.262;2023-11-22T10:17:59;1.40;;;0.93;;
25549;SDS011;13444;50.562;7.262;2023-11-22T10:20:35;1.60;;;1.48;;
25549;SDS011;13444;50.562;7.262;2023-11-22T10:23:02;2.17;;;1.55;;
25549;SDS011;13444;50.562;7.262;2023-11-22T10:25:28;4.50;;;1.67;;
25549;SDS011;13444;50.562;7.262;2023-11-22T10:27:54;1.30;;;0.93;;
25549;SDS011;13444;50.562;7.262;2023-11-22T10:30:20;1.92;;;1.20;;
25549;SDS011;13444;50.562;7.262;2023-11-22T10:32:45;1.20;;;0.95;;
25549;SDS011;13444;50.562;7.262;2023-11-22T10:35:11;1.20;;;1.10;;
25549;SDS011;13444;50.562;7.262;2023-11-22T10:37:40;1.40;;;1.00;;
25549;SDS011;13444;50.562;7.262;2023-11-22T10:40:07;1.58;;;1.00;;
25549;SDS011;13444;50.562;7.262;2023-11-22T10:42:35;1.08;;;0.90;;
25549;SDS011;13444;50.562;7.262;2023-11-22T10:45:02;1.73;;;0.90;;
25549;SDS011;13444;50.562;7.262;2023-11-22T10:47:32;1.65;;;0.80;;
25549;SDS011;13444;50.562;7.262;2023-11-22T10:50:03;1.00;;;0.90;;
25549;SDS011;13444;50.562;7.262;2023-11-22T10:52:29;1.13;;;1.02;;
25549;SDS011;13444;50.562;7.262;2023-11-22T10:54:59;2.42;;;1.48;;
25549;SDS011;13444;50.562;7.262;2023-11-22T10:57:28;2.25;;;0.90;;
25549;SDS011;13444;50.562;7.262;2023-11-22T10:59:58;4.55;;;1.17;;
25549;SDS011;13444;50.562;7.262;2023-11-22T11:02:31;3.08;;;1.67;;
25549;SDS011;13444;50.562;7.262;2023-11-22T11:05:02;6.05;;;1.20;;
25549;SDS011;13444;50.562;7.262;2023-11-22T11:07:32;2.58;;;1.10;;
25549;SDS011;13444;50.562;7.262;2023-11-22T11:10:02;1.67;;;1.23;;
25549;SDS011;13444;50.562;7.262;2023-11-22T11:12:27;1.45;;;0.90;;
25549;SDS011;13444;50.562;7.262;2023-11-22T11:14:53;1.75;;;0.88;;
25549;SDS011;13444;50.562;7.262;2023-11-22T11:17:19;1.95;;;0.80;;
25549;SDS011;13444;50.562;7.262;2023-11-22T11:19:45;2.25;;;0.80;;
25549;SDS011;13444;50.562;7.262;2023-11-22T11:22:11;1.02;;;0.75;;
25549;SDS011;13444;50.562;7.262;2023-11-22T11:24:39;1.60;;;0.95;;
25549;SDS011;13444;50.562;7.262;2023-11-22T11:27:06;3.38;;;3.08;;
25549;SDS011;13444;50.562;7.262;2023-11-22T11:29:33;1.38;;;1.10;;
25549;SDS011;13444;50.562;7.262;2023-11-22T11:32:04;2.40;;;0.90;;
25549;SDS011;13444;50.562;7.262;2023-11-22T11:34:31;1.00;;;0.88;;
25549;SDS011;13444;50.562;7.262;2023-11-22T11:36:56;2.78;;;1.23;;
25549;SDS011;13444;50.562;7.262;2023-11-22T11:39:25;1.95;;;1.13;;
25549;SDS011;13444;50.562;7.262;2023-11-22T11:42:11;0.70;;;0.70;;
25549;SDS011;13444;50.562;7.262;2023-11-22T11:44:45;1.63;;;1.10;;
25549;SDS011;13444;50.562;7.262;2023-11-22T11:47:27;1.45;;;0.90;;
25549;SDS011;13444;50.562;7.262;2023-11-22T11:49:52;5.03;;;1.33;;
25549;SDS011;13444;50.562;7.262;2023-11-22T11:52:20;1.42;;;0.98;;
25549;SDS011;13444;50.562;7.262;2023-11-22T11:54:45;1.05;;;0.90;;
25549;SDS011;13444;50.562;7.262;2023-11-22T11:57:11;1.90;;;0.85;;
25549;SDS011;13444;50.562;7.262;2023-11-22T11:59:37;2.40;;;0.77;;
25549;SDS011;13444;50.562;7.262;2023-11-22T12:02:02;1.10;;;0.80;;
25549;SDS011;13444;50.562;7.262;2023-11-22T12:04:30;1.08;;;0.88;;
25549;SDS011;13444;50.562;7.262;2023-11-22T12:06:57;1.08;;;0.88;;
25549;SDS011;13444;50.562;7.262;2023-11-22T12:09:26;1.17;;;0.80;;
25549;SDS011;13444;50.562;7.262;2023-11-22T12:11:54;1.05;;;0.90;;
25549;SDS011;13444;50.562;7.262;2023-11-22T12:14:20;0.88;;;0.70;;
25549;SDS011;13444;50.562;7.262;2023-11-22T12:16:50;1.35;;;0.70;;
25549;SDS011;13444;50.562;7.262;2023-11-22T12:19:27;1.00;;;0.80;;
25549;SDS011;13444;50.562;7.262;2023-11-22T12:21:55;1.15;;;0.93;;
25549;SDS011;13444;50.562;7.262;2023-11-22T12:24:22;3.75;;;1.10;;
25549;SDS011;13444;50.562;7.262;2023-11-22T12:26:48;6.43;;;1.20;;
25549;SDS011;13444;50.562;7.262;2023-11-22T12:29:15;1.92;;;1.02;;
25549;SDS011;13444;50.562;7.262;2023-11-22T12:31:45;1.52;;;1.05;;
25549;SDS011;13444;50.562;7.262;2023-11-22T12:34:12;1.10;;;1.00;;
25549;SDS011;13444;50.562;7.262;2023-11-22T12:36:40;1.75;;;1.15;;
25549;SDS011;13444;50.562;7.262;2023-11-22T12:39:06;1.40;;;0.90;;
25549;SDS011;13444;50.562;7.262;2023-11-22T12:41:51;1.50;;;0.88;;
25549;SDS011;13444;50.562;7.262;2023-11-22T12:44:17;1.92;;;1.20;;
25549;SDS011;13444;50.562;7.262;2023-11-22T12:46:46;1.95;;;1.20;;
25549;SDS011;13444;50.562;7.262;2023-11-22T12:49:22;1.73;;;1.13;;
25549;SDS011;13444;50.562;7.262;2023-11-22T12:51:52;1.27;;;1.00;;
25549;SDS011;13444;50.562;7.262;2023-11-22T12:54:19;1.67;;;1.23;;
25549;SDS011;13444;50.562;7.262;2023-11-22T12:56:47;1.98;;;1.00;;
25549;SDS011;13444;50.562;7.262;2023-11-22T12:59:19;1.25;;;1.00;;
25549;SDS011;13444;50.562;7.262;2023-11-22T13:01:44;1.25;;;1.00;;
25549;SDS011;13444;50.562;7.262;2023-11-22T13:04:10;1.10;;;0.93;;
25549;SDS011;13444;50.562;7.262;2023-11-22T13:06:39;2.80;;;1.10;;
25549;SDS011;13444;50.562;7.262;2023-11-22T13:09:05;2.30;;;1.13;;
25549;SDS011;13444;50.562;7.262;2023-11-22T13:11:31;3.38;;;1.05;;
25549;SDS011;13444;50.562;7.262;2023-11-22T13:13:58;3.58;;;1.10;;
25549;SDS011;13444;50.562;7.262;2023-11-22T13:16:23;1.80;;;1.10;;
25549;SDS011;13444;50.562;7.262;2023-11-22T13:18:49;1.33;;;1.10;;
25549;SDS011;13444;50.562;7.262;2023-11-22T13:21:14;1.90;;;1.10;;
25549;SDS011;13444;50.562;7.262;2023-11-22T13:23:40;2.40;;;0.90;;
25549;SDS011;13444;50.562;7.262;2023-11-22T13:26:06;1.35;;;1.00;;
25549;SDS011;13444;50.562;7.262;2023-11-22T13:28:34;1.52;;;1.40;;
25549;SDS011;13444;50.562;7.262;2023-11-22T13:31:00;2.05;;;1.20;;
25549;SDS011;13444;50.562;7.262;2023-11-22T13:33:25;1.98;;;0.90;;
25549;SDS011;13444;50.562;7.262;2023-11-22T13:35:53;3.05;;;1.17;;
25549;SDS011;13444;50.562;7.262;2023-11-22T13:38:18;2.88;;;1.27;;
25549;SDS011;13444;50.562;7.262;2023-11-22T13:40:44;1.40;;;1.20;;
25549;SDS011;13444;50.562;7.262;2023-11-22T13:43:11;1.45;;;1.30;;
25549;SDS011;13444;50.562;7.262;2023-11-22T13:45:38;1.98;;;1.20;;
25549;SDS011;13444;50.562;7.262;2023-11-22T13:48:06;1.65;;;1.27;;
25549;SDS011;13444;50.562;7.262;2023-11-22T13:50:34;2.85;;;0.93;;
25549;SDS011;13444;50.562;7.262;2023-11-22T13:53:00;1.60;;;1.00;;
25549;SDS011;13444;50.562;7.262;2023-11-22T13:55:27;2.05;;;1.40;;
25549;SDS011;13444;50.562;7.262;2023-11-22T13:57:53;2.55;;;1.02;;
25549;SDS011;13444;50.562;7.262;2023-11-22T14:00:21;2.75;;;1.60;;
25549;SDS011;13444;50.562;7.262;2023-11-22T14:02:49;3.50;;;1.30;;
25549;SDS011;13444;50.562;7.262;2023-11-22T14:05:25;2.08;;;1.13;;
25549;SDS011;13444;50.562;7.262;2023-11-22T14:07:54;4.60;;;1.20;;
25549;SDS011;13444;50.562;7.262;2023-11-22T14:10:20;2.85;;;1.00;;
25549;SDS011;13444;50.562;7.262;2023-11-22T14:12:47;4.05;;;1.65;;
25549;SDS011;13444;50.562;7.262;2023-11-22T14:15:13;2.35;;;1.30;;
25549;SDS011;13444;50.562;7.262;2023-11-22T14:17:39;1.40;;;1.13;;
25549;SDS011;13444;50.562;7.262;2023-11-22T14:20:09;4.10;;;1.25;;
25549;SDS011;13444;50.562;7.262;2023-11-22T14:22:36;7.90;;;1.83;;
25549;SDS011;13444;50.562;7.262;2023-11-22T14:25:02;2.25;;;1.08;;
25549;SDS011;13444;50.562;7.262;2023-11-22T14:27:28;3.22;;;1.40;;
25549;SDS011;13444;50.562;7.262;2023-11-22T14:29:58;1.23;;;1.00;;
25549;SDS011;13444;50.562;7.262;2023-11-22T14:32:23;1.65;;;1.00;;
25549;SDS011;13444;50.562;7.262;2023-11-22T14:34:49;1.48;;;1.00;;
25549;SDS011;13444;50.562;7.262;2023-11-22T14:37:14;1.67;;;0.93;;
25549;SDS011;13444;50.562;7.262;2023-11-22T14:39:43;2.25;;;1.10;;
25549;SDS011;13444;50.562;7.262;2023-11-22T14:42:09;1.50;;;0.95;;
25549;SDS011;13444;50.562;7.262;2023-11-22T14:44:36;2.05;;;1.40;;
25549;SDS011;13444;50.562;7.262;2023-11-22T14:47:02;1.30;;;1.10;;
25549;SDS011;13444;50.562;7.262;2023-11-22T14:49:37;1.50;;;1.02;;
25549;SDS011;13444;50.562;7.262;2023-11-22T14:52:03;3.20;;;1.20;;